createdAt,value
2023-04-28T00:00:34.816Z,24.78
2023-04-28T00:01:34.832Z,24.79
2023-04-28T00:02:34.870Z,24.77
2023-04-28T00:03:34.927Z,24.79
2023-04-28T00:04:34.949Z,24.79
2023-04-28T00:05:34.814Z,24.79
2023-04-28T00:06:34.805Z,24.81
2023-04-28T00:07:34.758Z,24.77
2023-04-28T00:08:34.752Z,24.77
2023-04-28T00:09:34.742Z,24.78
2023-04-28T00:10:34.727Z,24.78
2023-04-28T00:11:34.741Z,24.79
2023-04-28T00:12:34.699Z,24.79
2023-04-28T00:13:34.705Z,24.78
2023-04-28T00:14:34.697Z,24.79
2023-04-28T00:15:34.681Z,24.81
2023-04-28T00:16:34.752Z,24.77
2023-04-28T00:17:34.705Z,24.77
2023-04-28T00:18:34.684Z,24.78
2023-04-28T00:19:34.709Z,24.79
2023-04-28T00:20:34.670Z,24.78
2023-04-28T00:21:34.693Z,24.77
2023-04-28T00:22:41.706Z,24.77
2023-04-28T00:23:34.643Z,24.75
2023-04-28T00:24:34.637Z,24.75
2023-04-28T00:25:34.621Z,24.77
2023-04-28T00:26:34.690Z,24.74
2023-04-28T00:27:34.635Z,24.74
2023-04-28T00:28:35.181Z,24.72
2023-04-28T00:29:34.620Z,24.75
2023-04-28T00:30:34.607Z,24.74
2023-04-28T00:31:34.654Z,24.75
2023-04-28T00:32:34.591Z,24.74
2023-04-28T00:33:34.577Z,24.74
2023-04-28T00:34:34.556Z,24.74
2023-04-28T00:35:34.563Z,24.74
2023-04-28T00:36:34.593Z,24.75
2023-04-28T00:37:34.553Z,24.75
2023-04-28T00:38:34.586Z,24.74
2023-04-28T00:39:34.544Z,24.72
2023-04-28T00:40:34.614Z,24.72
2023-04-28T00:41:34.529Z,24.69
2023-04-28T00:42:34.502Z,24.71
2023-04-28T00:43:34.536Z,24.72
2023-04-28T00:44:34.489Z,24.72
2023-04-28T00:45:34.522Z,24.74
2023-04-28T00:46:34.474Z,24.71
2023-04-28T00:47:34.569Z,24.71
2023-04-28T00:48:34.472Z,24.74
2023-04-28T00:49:34.452Z,24.72
2023-04-28T00:50:34.451Z,24.72
2023-04-28T00:51:34.462Z,24.69
2023-04-28T00:52:34.429Z,24.71
2023-04-28T00:53:34.459Z,24.72
2023-04-28T00:54:34.421Z,24.72
2023-04-28T00:55:34.426Z,24.71
2023-04-28T00:56:34.430Z,24.74
2023-04-28T00:57:34.401Z,24.72
2023-04-28T00:58:34.403Z,24.72
2023-04-28T00:59:34.405Z,24.74
2023-04-28T01:00:34.389Z,24.71
2023-04-28T01:01:34.478Z,24.72
2023-04-28T01:02:34.436Z,24.72
2023-04-28T01:03:34.489Z,24.71
2023-04-28T01:04:34.574Z,24.71
2023-04-28T01:05:34.350Z,24.71
2023-04-28T01:06:34.356Z,24.74
2023-04-28T01:07:34.353Z,24.72
2023-04-28T01:08:34.321Z,24.71
2023-04-28T01:09:34.314Z,24.71
2023-04-28T01:10:34.345Z,24.72
2023-04-28T01:11:34.305Z,24.71
2023-04-28T01:12:34.287Z,24.69
2023-04-28T01:13:34.312Z,24.69
2023-04-28T01:14:34.345Z,24.71
2023-04-28T01:15:34.324Z,24.71
2023-04-28T01:16:34.364Z,24.71
2023-04-28T01:17:34.393Z,24.69
2023-04-28T01:18:34.397Z,24.69
2023-04-28T01:19:34.439Z,24.69
2023-04-28T01:20:34.437Z,24.69
2023-04-28T01:21:34.442Z,24.71
2023-04-28T01:22:34.458Z,24.71
2023-04-28T01:23:34.457Z,24.69
2023-04-28T01:24:34.481Z,24.69
2023-04-28T01:25:34.504Z,24.71
2023-04-28T01:26:34.511Z,24.69
2023-04-28T01:27:34.534Z,24.68
2023-04-28T01:28:34.517Z,24.71
2023-04-28T01:29:34.506Z,24.69
2023-04-28T01:30:34.535Z,24.69
2023-04-28T01:31:34.558Z,24.67
2023-04-28T01:32:34.571Z,24.68
2023-04-28T01:33:34.573Z,24.69
2023-04-28T01:34:34.604Z,24.69
2023-04-28T01:35:34.610Z,24.68
2023-04-28T01:36:37.209Z,24.68
2023-04-28T01:37:34.617Z,24.67
2023-04-28T01:38:34.614Z,24.68
2023-04-28T01:39:34.600Z,24.69
2023-04-28T01:40:34.594Z,24.68
2023-04-28T01:41:34.700Z,24.68
2023-04-28T01:42:34.568Z,24.71
2023-04-28T01:43:34.575Z,24.65
2023-04-28T01:44:34.562Z,24.67
2023-04-28T01:45:34.564Z,24.69
2023-04-28T01:46:34.640Z,24.68
2023-04-28T01:47:34.557Z,24.68
2023-04-28T01:48:34.551Z,24.68
2023-04-28T01:49:34.531Z,24.67
2023-04-28T01:50:34.532Z,24.67
2023-04-28T01:51:34.517Z,24.69
2023-04-28T01:52:34.545Z,24.68
2023-04-28T01:53:34.495Z,24.67
2023-04-28T01:54:34.484Z,24.67
2023-04-28T01:55:34.553Z,24.67
2023-04-28T01:56:34.479Z,24.68
2023-04-28T01:57:34.485Z,24.65
2023-04-28T01:58:34.477Z,24.65
2023-04-28T01:59:34.457Z,24.65
2023-04-28T02:00:34.467Z,24.68
2023-04-28T02:01:34.502Z,24.67
2023-04-28T02:02:34.551Z,24.68
2023-04-28T02:03:34.682Z,24.64
2023-04-28T02:04:34.445Z,24.68
2023-04-28T02:05:34.432Z,24.65
2023-04-28T02:06:34.443Z,24.67
2023-04-28T02:07:34.439Z,24.65
2023-04-28T02:08:34.438Z,24.67
2023-04-28T02:09:34.432Z,24.64
2023-04-28T02:10:34.448Z,24.65
2023-04-28T02:11:34.395Z,24.64
2023-04-28T02:12:34.417Z,24.61
2023-04-28T02:13:34.405Z,24.65
2023-04-28T02:14:34.360Z,24.62
2023-04-28T02:15:34.463Z,24.65
2023-04-28T02:16:34.385Z,24.64
2023-04-28T02:17:34.398Z,24.65
2023-04-28T02:18:34.354Z,24.62
2023-04-28T02:19:34.320Z,24.64
2023-04-28T02:20:34.356Z,24.67
2023-04-28T02:21:34.330Z,24.65
2023-04-28T02:22:34.316Z,24.65
2023-04-28T02:23:34.286Z,24.65
2023-04-28T02:24:34.297Z,24.64
2023-04-28T02:25:34.317Z,24.65
2023-04-28T02:26:34.271Z,24.67
2023-04-28T02:27:34.297Z,24.65
2023-04-28T02:28:34.272Z,24.67
2023-04-28T02:29:34.266Z,24.67
2023-04-28T02:30:34.323Z,24.64
2023-04-28T02:31:34.280Z,24.65
2023-04-28T02:32:34.321Z,24.65
2023-04-28T02:33:34.232Z,24.65
2023-04-28T02:34:34.299Z,24.64
2023-04-28T02:35:34.233Z,24.65
2023-04-28T02:36:34.204Z,24.62
2023-04-28T02:37:34.206Z,24.64
2023-04-28T02:38:34.201Z,24.65
2023-04-28T02:39:34.194Z,24.65
2023-04-28T02:40:34.235Z,24.62
2023-04-28T02:41:34.163Z,24.62
2023-04-28T02:42:34.176Z,24.62
2023-04-28T02:43:34.178Z,24.64
2023-04-28T02:44:34.148Z,24.62
2023-04-28T02:45:34.192Z,24.65
2023-04-28T02:46:34.176Z,24.64
2023-04-28T02:47:34.148Z,24.62
2023-04-28T02:48:34.119Z,24.61
2023-04-28T02:49:34.136Z,24.62
2023-04-28T02:50:34.121Z,24.64
2023-04-28T02:51:34.125Z,24.67
2023-04-28T02:52:34.093Z,24.61
2023-04-28T02:53:34.087Z,24.62
2023-04-28T02:54:34.114Z,24.64
2023-04-28T02:55:34.082Z,24.59
2023-04-28T02:56:34.067Z,24.61
2023-04-28T02:57:34.068Z,24.62
2023-04-28T02:58:34.067Z,24.62
2023-04-28T02:59:34.074Z,24.61
2023-04-28T03:00:34.047Z,24.62
2023-04-28T03:01:34.091Z,24.61
2023-04-28T03:02:34.108Z,24.62
2023-04-28T03:03:34.145Z,24.62
2023-04-28T03:04:34.184Z,24.61
2023-04-28T03:05:34.024Z,24.64
2023-04-28T03:06:34.043Z,24.59
2023-04-28T03:07:33.987Z,24.58
2023-04-28T03:08:33.996Z,24.61
2023-04-28T03:09:34.009Z,24.59
2023-04-28T03:10:33.980Z,24.62
2023-04-28T03:11:33.993Z,24.59
2023-04-28T03:12:33.964Z,24.61
2023-04-28T03:13:33.964Z,24.61
2023-04-28T03:14:33.965Z,24.62
2023-04-28T03:15:33.947Z,24.59
2023-04-28T03:16:34.048Z,24.62
2023-04-28T03:17:34.024Z,24.58
2023-04-28T03:18:34.015Z,24.61
2023-04-28T03:19:34.044Z,24.58
2023-04-28T03:20:34.053Z,24.59
2023-04-28T03:21:34.094Z,24.59
2023-04-28T03:22:34.095Z,24.59
2023-04-28T03:23:34.111Z,24.58
2023-04-28T03:24:34.133Z,24.59
2023-04-28T03:25:34.156Z,24.59
2023-04-28T03:26:34.164Z,24.59
2023-04-28T03:27:34.188Z,24.61
2023-04-28T03:28:34.212Z,24.59
2023-04-28T03:29:34.237Z,24.59
2023-04-28T03:30:34.250Z,24.59
2023-04-28T03:31:34.302Z,24.61
2023-04-28T03:32:34.369Z,24.61
2023-04-28T03:33:34.326Z,24.59
2023-04-28T03:34:34.372Z,24.59
2023-04-28T03:35:34.361Z,24.61
2023-04-28T03:36:34.393Z,24.58
2023-04-28T03:37:34.431Z,24.59
2023-04-28T03:38:34.450Z,24.59
2023-04-28T03:39:34.518Z,24.57
2023-04-28T03:40:34.507Z,24.58
2023-04-28T03:41:34.542Z,24.61
2023-04-28T03:42:34.574Z,24.58
2023-04-28T03:43:34.589Z,24.58
2023-04-28T03:44:34.618Z,24.59
2023-04-28T03:45:34.694Z,24.57
2023-04-28T03:46:34.748Z,24.59
2023-04-28T03:47:34.711Z,24.58
2023-04-28T03:48:34.751Z,24.58
2023-04-28T03:49:34.796Z,24.58
2023-04-28T03:50:34.792Z,24.58
2023-04-28T03:51:34.828Z,24.55
2023-04-28T03:52:34.856Z,24.58
2023-04-28T03:53:34.903Z,24.58
2023-04-28T03:54:34.897Z,24.57
2023-04-28T03:55:34.912Z,24.58
2023-04-28T03:56:34.950Z,24.57
2023-04-28T03:57:34.977Z,24.57
2023-04-28T03:58:35.023Z,24.57
2023-04-28T03:59:35.046Z,24.58
2023-04-28T04:00:35.051Z,24.58
2023-04-28T04:01:35.082Z,24.55
2023-04-28T04:02:35.172Z,24.55
2023-04-28T04:03:35.335Z,24.57
2023-04-28T04:04:35.409Z,24.57
2023-04-28T04:05:35.278Z,24.57
2023-04-28T04:06:35.221Z,24.57
2023-04-28T04:07:35.211Z,24.57
2023-04-28T04:08:35.253Z,24.58
2023-04-28T04:09:35.266Z,24.57
2023-04-28T04:10:35.298Z,24.57
2023-04-28T04:11:35.303Z,24.55
2023-04-28T04:12:35.333Z,24.57
2023-04-28T04:13:35.404Z,24.54
2023-04-28T04:14:35.389Z,24.57
2023-04-28T04:15:35.487Z,24.55
2023-04-28T04:16:35.461Z,24.55
2023-04-28T04:17:35.521Z,24.57
2023-04-28T04:18:35.491Z,24.55
2023-04-28T04:19:35.558Z,24.57
2023-04-28T04:20:35.592Z,24.55
2023-04-28T04:21:35.597Z,24.54
2023-04-28T04:22:35.617Z,24.58
2023-04-28T04:23:35.646Z,24.55
2023-04-28T04:24:35.661Z,24.55
2023-04-28T04:25:35.687Z,24.58
2023-04-28T04:26:35.736Z,24.55
2023-04-28T04:27:35.762Z,24.57
2023-04-28T04:28:35.768Z,24.54
2023-04-28T04:29:35.799Z,24.57
2023-04-28T04:30:35.859Z,24.55
2023-04-28T04:31:35.905Z,24.54
2023-04-28T04:32:35.986Z,24.57
2023-04-28T04:33:35.911Z,24.55
2023-04-28T04:34:35.943Z,24.54
2023-04-28T04:35:36.008Z,24.54
2023-04-28T04:36:36.020Z,24.57
2023-04-28T04:37:36.056Z,24.57
2023-04-28T04:38:36.063Z,24.54
2023-04-28T04:39:36.083Z,24.55
2023-04-28T04:40:36.094Z,24.55
2023-04-28T04:41:36.178Z,24.55
2023-04-28T04:42:36.196Z,24.55
2023-04-28T04:43:36.203Z,24.54
2023-04-28T04:44:36.211Z,24.54
2023-04-28T04:45:36.244Z,24.57
2023-04-28T04:46:36.288Z,24.54
2023-04-28T04:47:36.369Z,24.55
2023-04-28T04:48:36.355Z,24.52
2023-04-28T04:49:36.375Z,24.52
2023-04-28T04:50:36.397Z,24.55
2023-04-28T04:51:36.431Z,24.54
2023-04-28T04:52:36.484Z,24.54
2023-04-28T04:53:36.483Z,24.54
2023-04-28T04:54:36.517Z,24.57
2023-04-28T04:55:36.538Z,24.54
2023-04-28T04:56:36.569Z,24.54
2023-04-28T04:57:36.624Z,24.57
2023-04-28T04:58:36.634Z,24.52
2023-04-28T04:59:36.676Z,24.55
2023-04-28T05:00:36.807Z,24.55
2023-04-28T05:01:36.738Z,24.55
2023-04-28T05:02:36.874Z,24.55
2023-04-28T05:03:36.874Z,24.52
2023-04-28T05:04:36.891Z,24.55
2023-04-28T05:05:36.811Z,24.54
2023-04-28T05:06:36.840Z,24.55
2023-04-28T05:07:37.804Z,24.55
2023-04-28T05:08:36.886Z,24.54
2023-04-28T05:09:36.957Z,24.55
2023-04-28T05:10:36.966Z,24.55
2023-04-28T05:11:36.988Z,24.55
2023-04-28T05:12:36.998Z,24.54
2023-04-28T05:13:37.023Z,24.52
2023-04-28T05:14:37.833Z,24.54
2023-04-28T05:15:37.092Z,24.55
2023-04-28T05:16:37.138Z,24.57
2023-04-28T05:17:37.163Z,24.55
2023-04-28T05:18:37.153Z,24.55
2023-04-28T05:19:37.174Z,24.55
2023-04-28T05:20:37.214Z,24.54
2023-04-28T05:21:37.278Z,24.54
2023-04-28T05:22:37.281Z,24.52
2023-04-28T05:23:37.314Z,24.55
2023-04-28T05:24:37.323Z,24.54
2023-04-28T05:25:37.396Z,24.55
2023-04-28T05:26:37.418Z,24.54
2023-04-28T05:27:37.564Z,24.55
2023-04-28T05:28:37.440Z,24.54
2023-04-28T05:29:38.216Z,24.55
2023-04-28T05:30:37.548Z,24.57
2023-04-28T05:31:37.892Z,24.58
2023-04-28T05:32:37.783Z,24.61
2023-04-28T05:33:37.618Z,24.61
2023-04-28T05:34:37.676Z,24.64
2023-04-28T05:35:37.846Z,24.62
2023-04-28T05:36:37.832Z,24.68
2023-04-28T05:37:37.738Z,24.69
2023-04-28T05:38:37.743Z,24.72
2023-04-28T05:39:37.742Z,24.75
2023-04-28T05:40:37.806Z,24.78
2023-04-28T05:41:37.750Z,24.83
2023-04-28T05:42:45.307Z,24.86
2023-04-28T05:43:37.787Z,24.91
2023-04-28T05:44:37.773Z,24.95
2023-04-28T05:45:37.816Z,24.98
2023-04-28T05:46:37.885Z,25.03
2023-04-28T05:47:37.783Z,25.06
2023-04-28T05:48:37.727Z,25.11
2023-04-28T05:49:37.741Z,25.13
2023-04-28T05:50:38.897Z,25.18
2023-04-28T05:51:37.728Z,25.19
2023-04-28T05:52:37.703Z,25.26
2023-04-28T05:53:37.710Z,25.26
2023-04-28T05:54:37.674Z,25.30
2023-04-28T05:55:37.720Z,25.30
2023-04-28T05:56:37.669Z,25.34
2023-04-28T05:57:49.265Z,25.39
2023-04-28T05:58:38.691Z,25.39
2023-04-28T05:59:37.680Z,25.43
2023-04-28T06:00:37.655Z,25.46
2023-04-28T06:01:37.654Z,25.49
2023-04-28T06:02:37.714Z,25.49
2023-04-28T06:03:37.739Z,25.53
2023-04-28T06:04:37.900Z,25.54
2023-04-28T06:05:37.781Z,25.56
2023-04-28T06:06:37.611Z,25.59
2023-04-28T06:07:37.621Z,25.62
2023-04-28T06:08:37.704Z,25.65
2023-04-28T06:09:37.749Z,25.66
2023-04-28T06:10:37.796Z,25.66
2023-04-28T06:11:37.903Z,25.67
2023-04-28T06:12:37.965Z,25.72
2023-04-28T06:13:37.983Z,25.70
2023-04-28T06:14:38.070Z,25.73
2023-04-28T06:15:38.159Z,25.75
2023-04-28T06:16:38.137Z,25.77
2023-04-28T06:17:38.232Z,25.79
2023-04-28T06:18:38.236Z,25.80
2023-04-28T06:19:38.314Z,25.84
2023-04-28T06:20:38.349Z,25.84
2023-04-28T06:21:38.398Z,25.86
2023-04-28T06:22:38.460Z,25.87
2023-04-28T06:23:38.479Z,25.88
2023-04-28T06:24:38.559Z,25.90
2023-04-28T06:25:38.556Z,25.93
2023-04-28T06:26:38.614Z,25.93
2023-04-28T06:27:38.652Z,25.94
2023-04-28T06:28:38.708Z,25.96
2023-04-28T06:29:38.722Z,25.96
2023-04-28T06:30:38.765Z,26.01
2023-04-28T06:31:38.824Z,25.97
2023-04-28T06:32:38.886Z,26.00
2023-04-28T06:33:38.872Z,26.01
2023-04-28T06:34:38.932Z,26.04
2023-04-28T06:35:38.957Z,26.03
2023-04-28T06:36:38.993Z,26.03
2023-04-28T06:37:39.469Z,26.04
2023-04-28T06:38:39.189Z,26.07
2023-04-28T06:39:39.098Z,26.04
2023-04-28T06:40:39.117Z,26.07
2023-04-28T06:41:39.421Z,26.07
2023-04-28T06:42:39.195Z,26.04
2023-04-28T06:43:39.248Z,26.08
2023-04-28T06:44:39.238Z,26.04
2023-04-28T06:45:39.291Z,26.01
2023-04-28T06:46:39.410Z,26.03
2023-04-28T06:47:39.592Z,25.98
2023-04-28T06:48:39.453Z,25.94
2023-04-28T06:49:39.467Z,25.93
2023-04-28T06:50:41.150Z,25.91
2023-04-28T06:51:39.513Z,25.88
2023-04-28T06:52:39.959Z,25.87
2023-04-28T06:53:39.504Z,25.83
2023-04-28T06:54:39.518Z,25.81
2023-04-28T06:55:39.482Z,25.79
2023-04-28T06:56:39.528Z,25.79
2023-04-28T06:57:39.486Z,25.76
2023-04-28T06:58:39.489Z,25.76
2023-04-28T06:59:39.483Z,25.76
2023-04-28T07:00:39.491Z,25.75
2023-04-28T07:01:39.581Z,25.75
2023-04-28T07:02:39.571Z,25.70
2023-04-28T07:03:39.520Z,25.69
2023-04-28T07:04:39.639Z,25.69
2023-04-28T07:05:39.477Z,25.66
2023-04-28T07:06:39.457Z,25.66
2023-04-28T07:07:39.462Z,25.63
2023-04-28T07:08:39.415Z,25.63
2023-04-28T07:09:39.681Z,25.60
2023-04-28T07:10:39.419Z,25.66
2023-04-28T07:11:39.433Z,25.63
2023-04-28T07:12:39.437Z,25.62
2023-04-28T07:13:39.363Z,25.62
2023-04-28T07:14:39.427Z,25.60
2023-04-28T07:15:39.389Z,25.60
2023-04-28T07:16:39.372Z,25.59
2023-04-28T07:17:39.440Z,25.59
2023-04-28T07:18:39.350Z,25.57
2023-04-28T07:19:39.422Z,25.57
2023-04-28T07:20:39.352Z,25.56
2023-04-28T07:21:39.351Z,25.57
2023-04-28T07:22:39.444Z,25.54
2023-04-28T07:23:39.447Z,25.53
2023-04-28T07:24:39.512Z,25.54
2023-04-28T07:25:39.596Z,25.52
2023-04-28T07:26:39.649Z,25.53
2023-04-28T07:27:39.717Z,25.50
2023-04-28T07:28:39.795Z,25.50
2023-04-28T07:29:39.900Z,25.50
2023-04-28T07:30:39.877Z,25.50
2023-04-28T07:31:40.385Z,25.50
2023-04-28T07:32:40.391Z,25.47
2023-04-28T07:33:40.170Z,25.50
2023-04-28T07:34:40.147Z,25.49
2023-04-28T07:35:40.199Z,25.49
2023-04-28T07:36:40.319Z,25.49
2023-04-28T07:37:40.344Z,25.49
2023-04-28T07:38:40.501Z,25.49
2023-04-28T07:39:40.528Z,25.44
2023-04-28T07:40:40.564Z,25.42
2023-04-28T07:41:40.585Z,25.37
2023-04-28T07:42:40.671Z,25.36
2023-04-28T07:43:40.687Z,25.33
2023-04-28T07:44:40.726Z,25.28
2023-04-28T07:45:40.745Z,25.23
2023-04-28T07:46:40.749Z,25.19
2023-04-28T07:47:40.789Z,25.21
2023-04-28T07:48:40.765Z,25.18
2023-04-28T07:49:40.742Z,25.18
2023-04-28T07:50:40.754Z,25.13
2023-04-28T07:51:40.777Z,25.11
2023-04-28T07:52:40.829Z,25.12
2023-04-28T07:53:40.864Z,25.11
2023-04-28T07:54:40.739Z,25.11
2023-04-28T07:55:40.749Z,25.12
2023-04-28T07:56:40.799Z,25.09
2023-04-28T07:57:40.739Z,25.09
2023-04-28T07:58:40.782Z,25.06
2023-04-28T07:59:40.744Z,25.08
2023-04-28T08:00:41.330Z,25.08
2023-04-28T08:01:40.755Z,25.08
2023-04-28T08:02:40.913Z,25.08
2023-04-28T08:03:40.948Z,25.06
2023-04-28T08:04:41.044Z,25.03
2023-04-28T08:05:40.845Z,25.05
2023-04-28T08:06:40.754Z,25.03
2023-04-28T08:07:40.769Z,25.01
2023-04-28T08:08:40.781Z,25.01
2023-04-28T08:09:41.733Z,25.01
2023-04-28T08:10:40.774Z,24.99
2023-04-28T08:11:40.740Z,24.96
2023-04-28T08:12:40.776Z,24.99
2023-04-28T08:13:40.729Z,24.96
2023-04-28T08:14:40.727Z,24.95
2023-04-28T08:15:40.733Z,24.96
2023-04-28T08:16:40.725Z,24.95
2023-04-28T08:17:40.811Z,24.96
2023-04-28T08:18:40.732Z,24.95
2023-04-28T08:19:40.724Z,24.95
2023-04-28T08:20:40.715Z,24.93
2023-04-28T08:21:40.761Z,24.92
2023-04-28T08:22:40.726Z,24.92
2023-04-28T08:23:40.882Z,24.85
2023-04-28T08:24:40.738Z,24.91
2023-04-28T08:25:41.414Z,24.91
2023-04-28T08:26:40.764Z,24.95
2023-04-28T08:27:40.748Z,24.98
2023-04-28T08:28:40.794Z,24.99
2023-04-28T08:29:40.766Z,25.02
2023-04-28T08:30:40.785Z,25.06
2023-04-28T08:31:40.808Z,25.06
2023-04-28T08:32:40.784Z,25.13
2023-04-28T08:33:40.781Z,25.15
2023-04-28T08:34:40.784Z,25.16
2023-04-28T08:35:40.782Z,25.19
2023-04-28T08:36:40.784Z,25.22
2023-04-28T08:37:40.811Z,25.22
2023-04-28T08:38:40.856Z,25.23
2023-04-28T08:39:40.887Z,25.23
2023-04-28T08:40:40.856Z,25.25
2023-04-28T08:41:40.878Z,25.28
2023-04-28T08:42:40.869Z,25.26
2023-04-28T08:43:40.882Z,25.28
2023-04-28T08:44:40.916Z,25.30
2023-04-28T08:45:40.920Z,25.34
2023-04-28T08:46:40.906Z,25.36
2023-04-28T08:47:40.972Z,25.36
2023-04-28T08:48:40.874Z,25.42
2023-04-28T08:49:40.883Z,25.43
2023-04-28T08:50:40.881Z,25.46
2023-04-28T08:51:42.191Z,25.47
2023-04-28T08:52:41.900Z,25.49
2023-04-28T08:54:06.085Z,25.54
2023-04-28T08:54:42.009Z,25.54
2023-04-28T08:55:41.023Z,25.57
2023-04-28T08:56:40.956Z,25.57
2023-04-28T08:57:41.493Z,25.60
2023-04-28T08:58:40.948Z,25.54
2023-04-28T08:59:40.930Z,25.60
2023-04-28T09:00:40.987Z,25.60
2023-04-28T09:01:41.024Z,25.49
2023-04-28T09:02:41.157Z,25.62
2023-04-28T09:03:41.310Z,25.66
2023-04-28T09:04:41.309Z,25.59
2023-04-28T09:05:41.337Z,25.63
2023-04-28T09:06:41.305Z,25.65
2023-04-28T09:07:41.493Z,25.65
2023-04-28T09:08:41.423Z,25.72
2023-04-28T09:09:41.543Z,25.72
2023-04-28T09:10:41.518Z,25.70
2023-04-28T09:11:41.594Z,25.76
2023-04-28T09:12:41.659Z,25.70
2023-04-28T09:13:41.694Z,25.76
2023-04-28T09:14:41.777Z,25.76
2023-04-28T09:15:41.818Z,25.77
2023-04-28T09:16:41.983Z,25.81
2023-04-28T09:17:42.001Z,25.73
2023-04-28T09:18:41.995Z,25.83
2023-04-28T09:19:42.058Z,25.83
2023-04-28T09:20:42.108Z,25.86
2023-04-28T09:21:42.146Z,25.86
2023-04-28T09:22:42.227Z,25.91
2023-04-28T09:23:42.312Z,26.01
2023-04-28T09:24:42.260Z,25.87
2023-04-28T09:25:42.322Z,25.97
2023-04-28T09:26:42.351Z,26.03
2023-04-28T09:27:42.484Z,26.00
2023-04-28T09:28:42.429Z,25.94
2023-04-28T09:29:42.443Z,26.00
2023-04-28T09:30:42.495Z,26.00
2023-04-28T09:31:42.577Z,26.10
2023-04-28T09:32:42.655Z,26.10
2023-04-28T09:33:42.905Z,26.11
2023-04-28T09:34:42.695Z,26.10
2023-04-28T09:35:42.739Z,26.05
2023-04-28T09:36:42.795Z,26.04
2023-04-28T09:37:42.793Z,26.04
2023-04-28T09:38:42.838Z,26.03
2023-04-28T09:39:42.851Z,26.05
2023-04-28T09:40:42.895Z,26.00
2023-04-28T09:41:43.002Z,26.01
2023-04-28T09:42:43.071Z,26.05
2023-04-28T09:43:43.009Z,26.03
2023-04-28T09:44:43.022Z,26.04
2023-04-28T09:45:43.092Z,26.03
2023-04-28T09:46:43.098Z,26.03
2023-04-28T09:47:43.205Z,26.01
2023-04-28T09:48:43.306Z,26.03
2023-04-28T09:49:43.226Z,26.00
2023-04-28T09:50:43.289Z,26.03
2023-04-28T09:51:43.331Z,26.01
2023-04-28T09:52:43.450Z,26.01
2023-04-28T09:53:43.404Z,26.01
2023-04-28T09:54:43.463Z,26.01
2023-04-28T09:55:43.486Z,26.01
2023-04-28T09:56:43.532Z,26.03
2023-04-28T09:57:43.553Z,26.03
2023-04-28T09:58:44.470Z,26.03
2023-04-28T09:59:43.695Z,26.03
2023-04-28T10:00:43.690Z,26.00
2023-04-28T10:01:43.857Z,26.03
2023-04-28T10:02:44.297Z,25.80
2023-04-28T10:03:43.920Z,25.94
2023-04-28T10:04:43.959Z,26.00
2023-04-28T10:05:43.970Z,25.93
2023-04-28T10:06:43.889Z,25.97
2023-04-28T10:07:43.953Z,25.98
2023-04-28T10:08:43.971Z,26.00
2023-04-28T10:09:44.126Z,26.01
2023-04-28T10:10:44.055Z,26.00
2023-04-28T10:11:44.078Z,26.00
2023-04-28T10:12:44.179Z,26.01
2023-04-28T10:13:44.206Z,26.00
2023-04-28T10:14:44.546Z,26.00
2023-04-28T10:15:44.285Z,25.98
2023-04-28T10:16:44.320Z,25.96
2023-04-28T10:17:44.439Z,25.96
2023-04-28T10:18:44.393Z,25.97
2023-04-28T10:19:44.441Z,25.91
2023-04-28T10:20:44.438Z,25.93
2023-04-28T10:21:44.583Z,25.96
2023-04-28T10:22:44.585Z,25.91
2023-04-28T10:23:44.622Z,25.90
2023-04-28T10:24:44.621Z,25.90
2023-04-28T10:25:44.655Z,25.88
2023-04-28T10:26:44.779Z,25.88
2023-04-28T10:27:44.804Z,25.88
2023-04-28T10:28:44.809Z,25.90
2023-04-28T10:29:44.882Z,25.91
2023-04-28T10:30:44.898Z,25.91
2023-04-28T10:31:45.020Z,25.91
2023-04-28T10:32:45.004Z,25.93
2023-04-28T10:33:45.019Z,25.88
2023-04-28T10:34:45.125Z,25.88
2023-04-28T10:35:45.221Z,25.84
2023-04-28T10:36:45.123Z,25.88
2023-04-28T10:37:45.173Z,25.86
2023-04-28T10:38:45.257Z,25.87
2023-04-28T10:39:45.261Z,25.87
2023-04-28T10:40:45.320Z,25.83
2023-04-28T10:41:45.598Z,25.81
2023-04-28T10:42:45.394Z,25.80
2023-04-28T10:43:45.458Z,25.80
2023-04-28T10:44:45.502Z,25.80
2023-04-28T10:45:45.527Z,25.80
2023-04-28T10:46:45.674Z,25.80
2023-04-28T10:47:45.688Z,25.76
2023-04-28T10:48:45.701Z,25.80
2023-04-28T10:49:45.737Z,25.77
2023-04-28T10:50:45.783Z,25.75
2023-04-28T10:51:45.814Z,25.76
2023-04-28T10:52:45.895Z,25.75
2023-04-28T10:53:46.746Z,25.76
2023-04-28T10:54:45.948Z,25.75
2023-04-28T10:55:46.005Z,25.76
2023-04-28T10:56:46.057Z,25.77
2023-04-28T10:57:46.127Z,25.77
2023-04-28T10:58:46.483Z,25.76
2023-04-28T10:59:46.187Z,25.73
2023-04-28T11:00:46.256Z,25.77
2023-04-28T11:01:46.416Z,25.75
2023-04-28T11:02:46.553Z,25.73
2023-04-28T11:03:46.640Z,25.76
2023-04-28T11:04:54.126Z,25.76
2023-04-28T11:05:46.435Z,25.75
2023-04-28T11:06:46.525Z,25.77
2023-04-28T11:07:46.410Z,25.79
2023-04-28T11:08:46.459Z,25.77
2023-04-28T11:09:46.437Z,25.79
2023-04-28T11:10:46.397Z,25.79
2023-04-28T11:11:46.376Z,25.77
2023-04-28T11:12:46.345Z,25.79
2023-04-28T11:13:46.422Z,25.79
2023-04-28T11:14:46.389Z,25.79
2023-04-28T11:15:46.429Z,25.79
2023-04-28T11:16:46.484Z,25.79
2023-04-28T11:17:46.577Z,25.80
2023-04-28T11:18:46.552Z,25.79
2023-04-28T11:19:46.583Z,25.83
2023-04-28T11:20:46.673Z,25.84
2023-04-28T11:21:46.658Z,25.87
2023-04-28T11:22:46.689Z,25.87
2023-04-28T11:23:47.001Z,25.87
2023-04-28T11:24:46.830Z,25.86
2023-04-28T11:25:46.834Z,25.87
2023-04-28T11:26:46.884Z,25.88
2023-04-28T11:27:46.939Z,25.88
2023-04-28T11:28:46.983Z,25.88
2023-04-28T11:29:47.015Z,25.83
2023-04-28T11:30:47.041Z,25.81
2023-04-28T11:31:47.145Z,25.81
2023-04-28T11:32:47.154Z,25.81
2023-04-28T11:33:47.189Z,25.80
2023-04-28T11:34:47.224Z,25.79
2023-04-28T11:35:47.288Z,25.76
2023-04-28T11:36:47.297Z,25.79
2023-04-28T11:37:47.358Z,25.80
2023-04-28T11:38:47.396Z,25.76
2023-04-28T11:39:47.461Z,25.77
2023-04-28T11:40:47.626Z,25.75
2023-04-28T11:41:47.520Z,25.76
2023-04-28T11:42:47.572Z,25.76
2023-04-28T11:43:47.938Z,25.75
2023-04-28T11:44:47.648Z,25.70
2023-04-28T11:45:47.774Z,25.70
2023-04-28T11:46:47.747Z,25.70
2023-04-28T11:47:47.876Z,25.70
2023-04-28T11:48:47.898Z,25.66
2023-04-28T11:49:47.929Z,25.66
2023-04-28T11:50:47.962Z,25.66
2023-04-28T11:51:48.002Z,25.65
2023-04-28T11:52:48.068Z,25.63
2023-04-28T11:53:48.137Z,25.63
2023-04-28T11:54:48.177Z,25.60
2023-04-28T11:55:48.282Z,25.62
2023-04-28T11:56:48.286Z,25.62
2023-04-28T11:57:48.354Z,25.57
2023-04-28T11:58:48.382Z,25.57
2023-04-28T11:59:49.445Z,25.57
2023-04-28T12:00:48.538Z,25.56
2023-04-28T12:01:48.568Z,25.57
2023-04-28T12:02:48.826Z,25.54
2023-04-28T12:03:48.814Z,25.56
2023-04-28T12:04:48.739Z,25.54
2023-04-28T12:05:49.565Z,25.52
2023-04-28T12:06:48.924Z,25.50
2023-04-28T12:07:48.915Z,25.52
2023-04-28T12:08:49.015Z,25.52
2023-04-28T12:09:49.044Z,25.50
2023-04-28T12:10:49.099Z,25.49
2023-04-28T12:11:49.142Z,25.50
2023-04-28T12:12:53.119Z,25.47
2023-04-28T12:13:49.222Z,25.47
2023-04-28T12:14:49.190Z,25.50
2023-04-28T12:15:49.222Z,25.49
2023-04-28T12:16:49.170Z,25.49
2023-04-28T12:17:49.248Z,25.47
2023-04-28T12:18:49.164Z,25.47
2023-04-28T12:19:49.166Z,25.49
2023-04-28T12:20:49.156Z,25.46
2023-04-28T12:21:49.148Z,25.44
2023-04-28T12:22:49.170Z,25.46
2023-04-28T12:23:49.147Z,25.47
2023-04-28T12:24:49.117Z,25.49
2023-04-28T12:25:49.151Z,25.44
2023-04-28T12:26:49.166Z,25.46
2023-04-28T12:27:49.125Z,25.47
2023-04-28T12:28:49.146Z,25.47
2023-04-28T12:29:49.094Z,25.49
2023-04-28T12:30:49.174Z,25.50
2023-04-28T12:31:49.282Z,25.47
2023-04-28T12:32:49.308Z,25.49
2023-04-28T12:33:49.339Z,25.50
2023-04-28T12:34:49.405Z,25.49
2023-04-28T12:35:49.451Z,25.49
2023-04-28T12:36:49.507Z,25.50
2023-04-28T12:37:49.596Z,25.49
2023-04-28T12:38:49.592Z,25.50
2023-04-28T12:39:49.646Z,25.50
2023-04-28T12:40:49.720Z,25.49
2023-04-28T12:41:49.790Z,25.47
2023-04-28T12:42:49.915Z,25.47
2023-04-28T12:43:49.920Z,25.50
2023-04-28T12:44:50.038Z,25.49
2023-04-28T12:45:50.050Z,25.49
2023-04-28T12:46:50.096Z,25.47
2023-04-28T12:47:50.177Z,25.50
2023-04-28T12:48:50.238Z,25.50
2023-04-28T12:49:50.313Z,25.49
2023-04-28T12:50:50.325Z,25.49
2023-04-28T12:51:50.380Z,25.47
2023-04-28T12:52:50.454Z,25.49